createdAt,value
2022-08-27T00:01:28.886Z,98062.44
2022-08-27T00:03:56.455Z,98068.22
2022-08-27T00:06:24.725Z,98066.59
2022-08-27T00:08:52.613Z,98065.56
2022-08-27T00:11:20.480Z,98057.53
2022-08-27T00:13:48.008Z,98060.00
2022-08-27T00:16:16.393Z,98053.84
2022-08-27T00:18:48.028Z,98059.56
2022-08-27T00:21:16.077Z,98055.69
2022-08-27T00:23:43.371Z,98062.88
2022-08-27T00:26:10.616Z,98066.00
2022-08-27T00:28:37.945Z,98075.25
2022-08-27T00:31:04.834Z,98078.13
2022-08-27T00:33:31.966Z,98074.63
2022-08-27T00:35:58.827Z,98069.47
2022-08-27T00:38:25.553Z,98069.47
2022-08-27T00:40:53.479Z,98066.81
2022-08-27T00:43:23.815Z,98075.25
2022-08-27T00:45:51.902Z,98067.81
2022-08-27T00:48:22.188Z,98070.47
2022-08-27T00:50:52.068Z,98066.41
2022-08-27T00:53:24.353Z,98063.28
2022-08-27T00:55:59.968Z,98067.22
2022-08-27T00:58:38.031Z,98063.06
2022-08-27T01:01:11.413Z,98062.88
2022-08-27T01:03:39.567Z,98065.75
2022-08-27T01:06:09.928Z,98070.72
2022-08-27T01:08:38.797Z,98065.34
2022-08-27T01:11:05.885Z,98056.28
2022-08-27T01:13:58.913Z,98063.72
2022-08-27T01:16:27.379Z,98052.16
2022-08-27T01:18:55.299Z,98050.53
2022-08-27T01:21:34.538Z,98052.41
2022-08-27T01:24:07.018Z,98051.97
2022-08-27T01:26:33.746Z,98050.72
2022-08-27T01:29:01.076Z,98052.97
2022-08-27T01:31:29.386Z,98052.53
2022-08-27T01:34:03.643Z,98050.91
2022-08-27T01:36:30.315Z,98060.56
2022-08-27T01:38:57.574Z,98056.88
2022-08-27T01:41:25.373Z,98058.31
2022-08-27T01:43:52.572Z,98050.84
2022-08-27T01:46:24.482Z,98058.69
2022-08-27T01:48:51.496Z,98056.63
2022-08-27T01:51:18.503Z,98047.53
2022-08-27T01:53:45.454Z,98043.44
2022-08-27T01:56:17.717Z,98046.50
2022-08-27T01:59:03.043Z,98047.53
2022-08-27T02:01:45.957Z,98041.75
2022-08-27T02:04:15.428Z,98047.13
2022-08-27T02:07:03.226Z,98053.94
2022-08-27T02:09:50.287Z,98038.91
2022-08-27T02:12:26.095Z,98050.44
2022-08-27T02:14:58.955Z,98044.88
2022-08-27T02:17:30.918Z,98044.66
2022-08-27T02:20:07.796Z,98040.94
2022-08-27T02:22:35.507Z,98034.75
2022-08-27T02:25:07.151Z,98040.50
2022-08-27T02:27:43.583Z,98035.19
2022-08-27T02:30:18.259Z,98039.06
2022-08-27T02:32:49.814Z,98039.31
2022-08-27T02:35:25.074Z,98038.44
2022-08-27T02:38:03.765Z,98040.13
2022-08-27T02:40:31.428Z,98048.97
2022-08-27T02:43:09.952Z,98046.50
2022-08-27T02:46:17.301Z,98042.00
2022-08-27T02:48:49.439Z,98041.56
2022-08-27T02:54:19.785Z,98050.41
2022-08-27T02:57:02.045Z,98045.47
2022-08-27T02:59:41.177Z,98052.66
2022-08-27T03:02:24.214Z,98053.69
2022-08-27T03:05:01.023Z,98050.03
2022-08-27T03:07:32.681Z,98047.34
2022-08-27T03:10:05.431Z,98048.97
2022-08-27T03:12:47.308Z,98046.28
2022-08-27T03:15:19.787Z,98045.03
2022-08-27T03:18:19.386Z,98050.03
2022-08-27T03:20:58.120Z,98052.47
2022-08-27T03:23:29.761Z,98052.47
2022-08-27T03:26:03.339Z,98048.78
2022-08-27T03:28:37.760Z,98059.06
2022-08-27T03:31:09.288Z,98052.91
2022-08-27T03:33:42.752Z,98059.88
2022-08-27T03:36:16.055Z,98045.06
2022-08-27T03:38:46.599Z,98045.06
2022-08-27T03:41:18.030Z,98052.91
2022-08-27T03:43:48.125Z,98049.19
2022-08-27T03:46:33.687Z,98050.03
2022-08-27T03:49:13.354Z,98048.97
2022-08-27T03:51:44.692Z,98047.53
2022-08-27T03:54:19.355Z,98043.44
2022-08-27T03:56:55.517Z,98042.25
2022-08-27T03:59:36.857Z,98040.16
2022-08-27T04:02:09.355Z,98037.09
2022-08-27T04:04:41.952Z,98036.09
2022-08-27T04:07:14.531Z,98032.00
2022-08-27T04:09:53.664Z,98033.66
2022-08-27T04:12:31.106Z,98040.88
2022-08-27T04:15:02.057Z,98032.84
2022-08-27T04:17:41.496Z,98035.34
2022-08-27T04:20:35.959Z,98034.31
2022-08-27T04:23:19.309Z,98034.09
2022-08-27T04:25:50.966Z,98040.50
2022-08-27T04:28:21.396Z,98036.16
2022-08-27T04:30:51.297Z,98040.31
2022-08-27T04:33:19.011Z,98046.09
2022-08-27T04:36:03.058Z,98044.00
2022-08-27T04:38:36.504Z,98041.94
2022-08-27T04:41:23.521Z,98044.00
2022-08-27T04:44:05.638Z,98049.75
2022-08-27T04:46:36.812Z,98048.28
2022-08-27T04:49:18.444Z,98049.72
2022-08-27T04:51:57.042Z,98049.28
2022-08-27T04:54:32.982Z,98053.03
2022-08-27T04:57:06.396Z,98054.25
2022-08-27T04:59:45.240Z,98045.38
2022-08-27T05:02:16.995Z,98048.47
2022-08-27T05:04:59.408Z,98052.16
2022-08-27T05:07:35.630Z,98044.75
2022-08-27T05:10:14.875Z,98055.66
2022-08-27T05:12:46.671Z,98050.50
2022-08-27T05:15:28.752Z,98049.88
2022-08-27T05:18:10.631Z,98057.25
2022-08-27T05:20:47.218Z,98051.72
2022-08-27T05:23:19.028Z,98050.84
2022-08-27T05:25:52.735Z,98052.84
2022-08-27T05:28:27.861Z,98053.19
2022-08-27T05:31:03.977Z,98031.13
2022-08-27T05:33:32.688Z,98039.34
2022-08-27T05:36:03.321Z,98034.81
2022-08-27T05:38:31.797Z,98033.38
2022-08-27T05:41:09.016Z,98036.88
2022-08-27T05:43:50.562Z,98031.94
2022-08-27T05:46:42.737Z,98038.75
2022-08-27T05:49:13.535Z,98037.06
2022-08-27T05:51:48.275Z,98049.41
2022-08-27T05:54:23.926Z,98044.22
2022-08-27T05:57:06.435Z,98045.63
2022-08-27T05:59:57.743Z,98043.97
2022-08-27T06:02:34.457Z,98040.06
2022-08-27T06:05:11.815Z,98042.75
2022-08-27T06:07:48.849Z,98048.63
2022-08-27T06:10:23.275Z,98054.16
2022-08-27T06:12:56.912Z,98051.84
2022-08-27T06:15:26.936Z,98051.56
2022-08-27T06:17:59.974Z,98049.88
2022-08-27T06:20:38.443Z,98050.63
2022-08-27T06:23:09.799Z,98053.16
2022-08-27T06:25:56.193Z,98055.41
2022-08-27T06:28:32.360Z,98049.88
2022-08-27T06:31:17.289Z,98061.84
2022-08-27T06:33:47.853Z,98055.47
2022-08-27T06:36:25.474Z,98066.66
2022-08-27T06:39:01.348Z,98065.06
2022-08-27T06:41:32.135Z,98062.53
2022-08-27T06:43:59.796Z,98070.47
2022-08-27T06:46:31.028Z,98062.06
2022-08-27T06:49:05.565Z,98076.09
2022-08-27T06:51:38.756Z,98068.66
2022-08-27T06:54:15.481Z,98068.66
2022-08-27T06:56:58.875Z,98067.88
2022-08-27T06:59:32.260Z,98069.75
2022-08-27T07:02:05.653Z,98062.66
2022-08-27T07:04:56.558Z,98068.28
2022-08-27T07:07:55.372Z,98068.75
2022-08-27T07:10:32.045Z,98065.06
2022-08-27T07:13:09.848Z,98062.28
2022-08-27T07:15:46.576Z,98061.03
2022-08-27T07:18:27.344Z,98065.78
2022-08-27T07:21:05.605Z,98072.81
2022-08-27T07:23:43.405Z,98066.53
2022-08-27T07:26:13.860Z,98071.25
2022-08-27T07:28:50.163Z,98069.00
2022-08-27T07:31:25.394Z,98079.75
2022-08-27T07:34:05.791Z,98078.56
2022-08-27T07:36:38.452Z,98083.06
2022-08-27T07:39:08.468Z,98088.63
2022-08-27T07:42:00.893Z,98082.66
2022-08-27T07:44:34.396Z,98082.56
2022-08-27T07:47:03.511Z,98087.09
2022-08-27T07:49:32.184Z,98092.66
2022-08-27T07:52:23.617Z,98097.28
2022-08-27T07:54:54.758Z,98090.97
2022-08-27T07:57:22.303Z,98093.97
2022-08-27T07:59:57.043Z,98099.00
2022-08-27T08:02:24.143Z,98099.72
2022-08-27T08:04:51.693Z,98104.09
2022-08-27T08:07:18.594Z,98113.34
2022-08-27T08:09:45.274Z,98109.63
2022-08-27T08:12:12.010Z,98108.41
2022-08-27T08:14:38.728Z,98110.69
2022-08-27T08:17:05.628Z,98117.31
2022-08-27T08:19:36.861Z,98119.59
2022-08-27T08:22:05.789Z,98115.25
2022-08-27T08:24:34.373Z,98116.88
2022-08-27T08:27:05.093Z,98107.59
2022-08-27T08:29:33.753Z,98116.59
2022-08-27T08:32:00.625Z,98112.97
2022-08-27T08:34:29.031Z,98126.91
2022-08-27T08:36:55.694Z,98123.25
2022-08-27T08:39:23.894Z,98132.72
2022-08-27T08:41:56.561Z,98126.72
2022-08-27T08:44:49.631Z,98122.97
2022-08-27T08:47:27.261Z,98129.78
2022-08-27T08:50:05.733Z,98136.31
2022-08-27T08:52:35.657Z,98138.22
2022-08-27T08:55:25.817Z,98134.88
2022-08-27T08:58:00.093Z,98136.13
2022-08-27T09:00:27.310Z,98144.53
2022-08-27T09:02:54.965Z,98139.63
2022-08-27T09:05:24.070Z,98143.16
2022-08-27T09:08:34.056Z,98144.16
2022-08-27T09:11:14.052Z,98143.72
2022-08-27T09:13:43.298Z,98139.56
2022-08-27T09:16:10.238Z,98140.78
2022-08-27T09:18:40.925Z,98149.53
2022-08-27T09:21:29.978Z,98146.06
2022-08-27T09:24:14.842Z,98149.09
2022-08-27T09:26:44.031Z,98142.03
2022-08-27T09:29:17.478Z,98138.91
2022-08-27T09:31:54.099Z,98132.94
2022-08-27T09:34:30.827Z,98126.47
2022-08-27T09:37:04.473Z,98130.06
2022-08-27T09:40:23.184Z,98133.09
2022-08-27T09:43:19.830Z,98133.41
2022-08-27T09:46:17.977Z,98129.16
2022-08-27T09:48:58.177Z,98127.91
2022-08-27T09:51:32.503Z,98121.88
2022-08-27T09:54:09.560Z,98128.09
2022-08-27T09:56:54.017Z,98124.94
2022-08-27T09:59:35.991Z,98124.75
2022-08-27T10:02:08.072Z,98123.56
2022-08-27T10:04:55.763Z,98123.66
2022-08-27T10:07:54.350Z,98124.25
2022-08-27T10:10:58.925Z,98120.78
2022-08-27T10:13:45.771Z,98117.84
2022-08-27T10:16:51.033Z,98117.22
2022-08-27T10:19:58.562Z,98118.16
2022-08-27T10:22:41.740Z,98116.22
2022-08-27T10:25:36.556Z,98119.72
2022-08-27T10:28:40.504Z,98118.22
2022-08-27T10:31:45.361Z,98125.25
2022-08-27T10:34:29.503Z,98127.50
2022-08-27T10:37:36.718Z,98124.16
2022-08-27T10:40:27.693Z,98132.50
2022-08-27T10:43:24.594Z,98128.75
2022-08-27T10:46:06.690Z,98133.03
2022-08-27T10:49:00.412Z,98138.31
2022-08-27T10:52:18.667Z,98136.38
2022-08-27T10:55:26.721Z,98148.00
2022-08-27T10:58:30.639Z,98141.06
2022-08-27T11:01:21.655Z,98152.09
2022-08-27T11:04:12.247Z,98150.44
2022-08-27T11:06:55.424Z,98147.50
2022-08-27T11:09:28.413Z,98150.31
2022-08-27T11:12:17.373Z,98150.09
2022-08-27T11:15:13.041Z,98146.59
2022-08-27T11:17:52.269Z,98141.59
2022-08-27T11:20:33.925Z,98146.38
2022-08-27T11:23:22.579Z,98138.84
2022-08-27T11:26:04.309Z,98145.53
2022-08-27T11:28:49.314Z,98148.81
2022-08-27T11:31:34.970Z,98147.72
2022-08-27T11:34:30.540Z,98147.56
2022-08-27T11:37:38.652Z,98151.50
2022-08-27T11:40:48.081Z,98145.66
2022-08-27T11:43:24.411Z,98143.59
2022-08-27T11:46:11.430Z,98142.72
2022-08-27T11:48:42.481Z,98144.50
2022-08-27T11:51:20.587Z,98139.09
2022-08-27T11:54:06.397Z,98132.69
2022-08-27T11:56:57.896Z,98131.09
2022-08-27T11:59:40.808Z,98134.09
2022-08-27T12:02:59.446Z,98134.06
2022-08-27T12:05:44.443Z,98127.53
2022-08-27T12:08:37.956Z,98122.88
2022-08-27T12:11:43.331Z,98123.69
2022-08-27T12:14:33.699Z,98127.38
2022-08-27T12:17:30.802Z,98134.63
2022-08-27T12:20:42.494Z,98128.16
2022-08-27T12:23:42.483Z,98130.19
2022-08-27T12:26:35.043Z,98142.94
2022-08-27T12:29:27.751Z,98124.72
2022-08-27T12:32:31.306Z,98125.31
2022-08-27T12:35:19.992Z,98127.88
2022-08-27T12:38:29.983Z,98128.63
2022-08-27T12:41:26.524Z,98123.56
2022-08-27T12:44:19.120Z,98122.03
2022-08-27T12:47:05.780Z,98126.38
2022-08-27T12:49:55.920Z,98122.28
2022-08-27T12:52:46.980Z,98126.69
2022-08-27T12:56:19.727Z,98119.56
2022-08-27T12:59:07.822Z,98113.69
2022-08-27T13:02:22.381Z,98115.34
2022-08-27T13:05:10.307Z,98108.56
2022-08-27T13:07:57.230Z,98107.72
2022-08-27T13:11:14.407Z,98108.56
2022-08-27T13:13:47.675Z,98107.63
2022-08-27T13:16:18.936Z,98105.72
2022-08-27T13:18:59.538Z,98103.38
2022-08-27T13:21:37.514Z,98111.22
2022-08-27T13:24:09.931Z,98111.59
2022-08-27T13:27:04.281Z,98119.56
2022-08-27T13:29:32.601Z,98113.09
2022-08-27T13:32:03.581Z,98106.69
2022-08-27T13:34:42.151Z,98106.09
2022-08-27T13:37:30.570Z,98105.03
2022-08-27T13:39:58.031Z,98103.16
2022-08-27T13:42:31.812Z,98106.69
2022-08-27T13:45:32.200Z,98106.47
2022-08-27T13:48:12.568Z,98100.38
2022-08-27T13:50:55.736Z,98100.94
2022-08-27T13:54:18.731Z,98106.22
2022-08-27T13:56:49.704Z,98105.59
2022-08-27T13:59:20.181Z,98098.47
2022-08-27T14:02:06.934Z,98098.81
2022-08-27T14:05:16.543Z,98094.16
2022-08-27T14:07:56.929Z,98088.91
2022-08-27T14:10:59.779Z,98086.56
2022-08-27T14:13:45.524Z,98080.34
2022-08-27T14:17:01.085Z,98087.13
2022-08-27T14:19:38.170Z,98082.34
2022-08-27T14:22:05.886Z,98089.94
2022-08-27T14:24:44.119Z,98088.66
2022-08-27T14:27:15.491Z,98084.34
2022-08-27T14:29:54.982Z,98088.28
2022-08-27T14:32:42.389Z,98090.41
2022-08-27T14:35:12.799Z,98081.50
2022-08-27T14:37:44.415Z,98089.13
2022-08-27T14:40:27.384Z,98088.19
2022-08-27T14:43:01.047Z,98088.66
2022-08-27T14:45:45.247Z,98087.72
2022-08-27T14:48:38.743Z,98085.38
2022-08-27T14:51:23.395Z,98079.78
2022-08-27T14:53:51.500Z,98080.59
2022-08-27T14:56:19.254Z,98079.97
2022-08-27T14:58:46.019Z,98082.19
2022-08-27T15:01:13.929Z,98084.75
2022-08-27T15:03:46.455Z,98090.81
2022-08-27T15:06:13.661Z,98084.63
2022-08-27T15:08:41.388Z,98083.56
2022-08-27T15:11:23.531Z,98080.38
2022-08-27T15:13:52.197Z,98094.16
2022-08-27T15:16:35.304Z,98090.28
2022-08-27T15:19:02.636Z,98088.41
2022-08-27T15:21:30.663Z,98086.09
2022-08-27T15:24:02.342Z,98086.22
2022-08-27T15:26:29.406Z,98084.00
2022-08-27T15:28:56.237Z,98078.63
2022-08-27T15:31:23.367Z,98083.94
2022-08-27T15:33:50.135Z,98082.53
2022-08-27T15:36:16.902Z,98083.47
2022-08-27T15:38:43.629Z,98084.97
2022-08-27T15:41:10.699Z,98083.00
2022-08-27T15:43:38.436Z,98081.41
2022-08-27T15:46:05.596Z,98075.78
2022-08-27T15:48:32.349Z,98065.72
2022-08-27T15:51:13.374Z,98072.50
2022-08-27T15:53:42.088Z,98065.72
2022-08-27T15:56:09.547Z,98065.03
2022-08-27T15:58:37.278Z,98065.00
2022-08-27T16:01:12.209Z,98068.50
2022-08-27T16:03:39.371Z,98067.47
2022-08-27T16:06:06.458Z,98076.38
2022-08-27T16:08:36.646Z,98072.03
2022-08-27T16:11:09.103Z,98072.84
2022-08-27T16:13:35.858Z,98073.56
2022-08-27T16:16:02.815Z,98079.75
2022-08-27T16:18:32.491Z,98084.16
2022-08-27T16:21:00.653Z,98078.41
2022-08-27T16:23:28.106Z,98078.34
2022-08-27T16:25:56.053Z,98076.91
2022-08-27T16:28:24.744Z,98074.94
2022-08-27T16:30:52.823Z,98078.94
2022-08-27T16:33:20.189Z,98078.50
2022-08-27T16:35:47.014Z,98082.44
2022-08-27T16:38:14.104Z,98079.75
2022-08-27T16:40:49.165Z,98085.56
2022-08-27T16:43:21.214Z,98083.41
2022-08-27T16:45:50.037Z,98095.13
2022-08-27T16:48:35.908Z,98095.06
2022-08-27T16:51:04.633Z,98090.69
2022-08-27T16:53:34.731Z,98089.44
2022-08-27T16:56:01.802Z,98083.03
2022-08-27T16:58:30.173Z,98089.03
2022-08-27T17:01:01.113Z,98093.78
2022-08-27T17:03:28.600Z,98082.56
2022-08-27T17:05:55.341Z,98083.09
2022-08-27T17:08:26.072Z,98078.25
2022-08-27T17:10:54.619Z,98076.31
2022-08-27T17:13:28.349Z,98090.50
2022-08-27T17:15:56.257Z,98089.97
2022-08-27T17:18:27.713Z,98090.69
2022-08-27T17:20:55.574Z,98103.50
2022-08-27T17:23:36.794Z,98098.16
2022-08-27T17:26:05.396Z,98109.50
2022-08-27T17:28:32.297Z,98104.56
2022-08-27T17:31:00.439Z,98105.88
2022-08-27T17:33:36.307Z,98105.56
2022-08-27T17:36:03.551Z,98096.13
2022-08-27T17:38:34.101Z,98107.50
2022-08-27T17:41:06.223Z,98110.88
2022-08-27T17:43:32.871Z,98104.78
2022-08-27T17:45:59.641Z,98106.88
2022-08-27T17:48:26.899Z,98108.06
2022-08-27T17:50:54.333Z,98106.63
2022-08-27T17:53:21.361Z,98104.59
2022-08-27T17:55:48.114Z,98109.78
2022-08-27T17:58:15.049Z,98109.41
2022-08-27T18:00:45.046Z,98115.31
2022-08-27T18:03:18.241Z,98114.06
2022-08-27T18:05:46.891Z,98116.34
2022-08-27T18:08:14.927Z,98121.53
2022-08-27T18:10:42.398Z,98127.97
2022-08-27T18:13:10.371Z,98130.09
2022-08-27T18:15:39.179Z,98124.97
2022-08-27T18:18:07.011Z,98130.16
2022-08-27T18:20:36.108Z,98140.50
2022-08-27T18:23:03.211Z,98143.38
2022-08-27T18:25:35.992Z,98152.47
2022-08-27T18:28:06.466Z,98151.44
2022-08-27T18:30:33.667Z,98154.97
2022-08-27T18:33:02.004Z,98152.03
2022-08-27T18:35:30.948Z,98149.16
2022-08-27T18:38:02.882Z,98153.88
2022-08-27T18:40:32.428Z,98155.28
2022-08-27T18:42:59.215Z,98156.56
2022-08-27T18:45:28.764Z,98163.56
2022-08-27T18:47:58.203Z,98163.38
2022-08-27T18:50:25.472Z,98160.50
2022-08-27T18:52:54.065Z,98167.31
2022-08-27T18:55:24.782Z,98166.75
2022-08-27T18:57:51.831Z,98167.31
2022-08-27T19:00:19.817Z,98169.41
2022-08-27T19:02:52.444Z,98167.94
2022-08-27T19:05:29.366Z,98167.31
2022-08-27T19:07:57.237Z,98161.97
2022-08-27T19:10:25.047Z,98168.56
2022-08-27T19:12:51.897Z,98175.59
2022-08-27T19:15:19.072Z,98176.84
2022-08-27T19:17:50.909Z,98181.59
2022-08-27T19:20:18.766Z,98181.38
2022-08-27T19:22:47.011Z,98188.59
2022-08-27T19:25:14.723Z,98191.72
2022-08-27T19:27:41.503Z,98199.16
2022-08-27T19:30:08.663Z,98197.06
2022-08-27T19:32:35.463Z,98194.81
2022-08-27T19:35:02.210Z,98201.66
2022-08-27T19:37:30.915Z,98205.78
2022-08-27T19:39:57.792Z,98211.75
2022-08-27T19:42:25.004Z,98212.19
2022-08-27T19:44:52.425Z,98218.53
2022-08-27T19:47:27.419Z,98222.25
2022-08-27T19:49:55.094Z,98222.66
2022-08-27T19:52:27.987Z,98217.50
2022-08-27T19:55:13.194Z,98214.81
2022-08-27T19:57:47.099Z,98210.47
2022-08-27T20:00:20.798Z,98212.72
2022-08-27T20:02:56.295Z,98216.25
2022-08-27T20:05:24.718Z,98207.38
2022-08-27T20:07:52.989Z,98209.03
2022-08-27T20:10:31.539Z,98201.22
2022-08-27T20:13:03.807Z,98208.03
2022-08-27T20:15:31.345Z,98205.94
2022-08-27T20:17:59.726Z,98204.69
2022-08-27T20:20:28.682Z,98206.53
2022-08-27T20:22:56.371Z,98220.59
2022-08-27T20:25:24.090Z,98211.94
2022-08-27T20:27:52.147Z,98207.00
2022-08-27T20:30:22.935Z,98211.75
2022-08-27T20:32:50.372Z,98209.91
2022-08-27T20:35:18.344Z,98202.91
2022-08-27T20:37:46.317Z,98196.94
2022-08-27T20:40:18.071Z,98207.84
2022-08-27T20:42:44.988Z,98202.06
2022-08-27T20:45:12.814Z,98206.78
2022-08-27T20:47:40.706Z,98207.38
2022-08-27T20:50:08.207Z,98210.69
2022-08-27T20:52:36.207Z,98208.44
2022-08-27T20:55:03.769Z,98207.63
2022-08-27T20:57:30.611Z,98207.69
2022-08-27T21:00:16.080Z,98207.25
2022-08-27T21:02:42.836Z,98206.03
2022-08-27T21:05:14.780Z,98212.63
2022-08-27T21:07:42.429Z,98215.13
2022-08-27T21:10:09.379Z,98212.44
2022-08-27T21:12:36.268Z,98220.69
2022-08-27T21:15:05.565Z,98213.47
2022-08-27T21:17:32.271Z,98220.06
2022-08-27T21:19:59.205Z,98218.63
2022-08-27T21:22:26.713Z,98220.06
2022-08-27T21:24:53.383Z,98225.22
2022-08-27T21:27:21.511Z,98228.31
2022-08-27T21:29:48.595Z,98219.84
2022-08-27T21:32:15.600Z,98219.63
2022-08-27T21:34:42.369Z,98230.53
2022-08-27T21:37:11.187Z,98221.69
2022-08-27T21:39:38.763Z,98221.03
2022-08-27T21:42:05.680Z,98221.84
2022-08-27T21:44:32.479Z,98221.22
2022-08-27T21:47:00.826Z,98221.47
2022-08-27T21:49:28.119Z,98224.34
2022-08-27T21:51:54.897Z,98228.84
2022-08-27T21:54:21.607Z,98231.13
2022-08-27T21:56:52.891Z,98234.19
2022-08-27T21:59:20.115Z,98231.53
2022-08-27T22:01:47.128Z,98235.25
2022-08-27T22:04:14.093Z,98228.84
2022-08-27T22:06:40.873Z,98234.63
2022-08-27T22:09:07.688Z,98230.09
2022-08-27T22:11:34.780Z,98233.81
2022-08-27T22:14:01.473Z,98231.13
2022-08-27T22:16:29.283Z,98226.59
2022-08-27T22:18:57.201Z,98225.97
2022-08-27T22:21:24.943Z,98229.69
2022-08-27T22:23:52.686Z,98226.16
2022-08-27T22:26:21.086Z,98230.31
2022-08-27T22:28:48.494Z,98222.47
2022-08-27T22:31:15.879Z,98224.75
2022-08-27T22:33:42.844Z,98227.00
2022-08-27T22:36:10.171Z,98221.66
2022-08-27T22:38:37.025Z,98227.00
2022-08-27T22:41:05.300Z,98230.94
2022-08-27T22:43:31.998Z,98229.88
2022-08-27T22:45:58.893Z,98228.84
2022-08-27T22:48:25.859Z,98231.53
2022-08-27T22:50:55.420Z,98228.44
2022-08-27T22:53:22.233Z,98224.13
2022-08-27T22:55:50.381Z,98222.31
2022-08-27T22:58:17.905Z,98221.88
2022-08-27T23:00:50.151Z,98223.31
2022-08-27T23:03:19.747Z,98217.56
2022-08-27T23:05:46.716Z,98215.50
2022-08-27T23:08:14.319Z,98214.09
2022-08-27T23:10:42.833Z,98218.84
2022-08-27T23:13:10.838Z,98209.38
2022-08-27T23:15:38.820Z,98216.16
2022-08-27T23:18:06.030Z,98223.16
2022-08-27T23:20:32.983Z,98219.25
2022-08-27T23:22:59.729Z,98222.53
2022-08-27T23:25:45.766Z,98216.16
2022-08-27T23:28:14.995Z,98212.44
2022-08-27T23:30:43.382Z,98215.53
2022-08-27T23:33:10.328Z,98212.88
2022-08-27T23:35:37.353Z,98201.16
2022-08-27T23:38:04.655Z,98214.13
2022-08-27T23:40:31.545Z,98216.19
2022-08-27T23:42:58.376Z,98208.16
2022-08-27T23:45:25.900Z,98211.66
2022-08-27T23:47:52.813Z,98212.25
2022-08-27T23:50:21.860Z,98217.59
2022-08-27T23:52:58.306Z,98215.16
2022-08-27T23:55:25.071Z,98219.69
2022-08-27T23:57:51.837Z,98216.53
